createdAt,value
2023-02-25T00:00:48.905Z,-1.20
2023-02-25T00:03:19.816Z,-1.20
2023-02-25T00:05:50.799Z,-1.20
2023-02-25T00:08:18.915Z,-1.10
2023-02-25T00:10:47.067Z,-1.10
2023-02-25T00:13:18.339Z,-1.10
2023-02-25T00:15:48.236Z,-1.10
2023-02-25T00:18:16.509Z,-1.00
2023-02-25T00:20:47.111Z,-1.00
2023-02-25T00:23:15.207Z,-1.00
2023-02-25T00:25:43.644Z,-1.00
2023-02-25T00:28:11.817Z,-1.00
2023-02-25T00:30:40.594Z,-0.90
2023-02-25T00:33:11.828Z,-0.90
2023-02-25T00:35:41.028Z,-0.70
2023-02-25T00:38:15.692Z,-0.70
2023-02-25T00:40:44.768Z,-0.80
2023-02-25T00:43:12.957Z,-0.60
2023-02-25T00:45:44.036Z,-0.60
2023-02-25T00:48:13.806Z,-0.50
2023-02-25T00:50:41.919Z,-0.50
2023-02-25T00:53:09.993Z,-0.50
2023-02-25T00:55:38.431Z,-0.50
2023-02-25T00:58:06.538Z,-0.60
2023-02-25T01:00:46.454Z,-0.50
2023-02-25T01:03:20.753Z,-0.60
2023-02-25T01:05:50.051Z,-0.60
2023-02-25T01:08:19.053Z,-0.60
2023-02-25T01:10:47.989Z,-0.50
2023-02-25T01:13:18.842Z,-0.50
2023-02-25T01:15:47.091Z,-0.50
2023-02-25T01:18:15.474Z,-0.50
2023-02-25T01:20:45.100Z,-0.50
2023-02-25T01:23:13.472Z,-0.50
2023-02-25T01:25:42.135Z,-0.60
2023-02-25T01:28:10.276Z,-0.50
2023-02-25T01:30:39.141Z,-0.50
2023-02-25T01:33:09.782Z,-0.50
2023-02-25T01:35:38.036Z,-0.50
2023-02-25T01:38:07.759Z,-0.60
2023-02-25T01:40:36.070Z,-0.60
2023-02-25T01:43:07.877Z,-0.60
2023-02-25T01:45:38.828Z,-0.60
2023-02-25T01:48:09.891Z,-0.60
2023-02-25T01:50:41.098Z,-0.60
2023-02-25T01:53:10.903Z,-0.70
2023-02-25T01:55:41.242Z,-0.60
2023-02-25T01:58:10.083Z,-0.70
2023-02-25T02:00:38.954Z,-0.60
2023-02-25T02:03:16.217Z,-0.70
2023-02-25T02:05:51.545Z,-0.80
2023-02-25T02:08:21.303Z,-0.70
2023-02-25T02:10:50.358Z,-0.70
2023-02-25T02:13:21.642Z,-0.70
2023-02-25T02:15:54.852Z,-0.60
2023-02-25T02:18:23.276Z,-0.60
2023-02-25T02:20:59.347Z,-0.70
2023-02-25T02:23:39.320Z,-0.60
2023-02-25T02:26:25.207Z,-0.70
2023-02-25T02:29:11.247Z,-0.60
2023-02-25T02:31:48.620Z,-0.60
2023-02-25T02:34:21.715Z,-0.50
2023-02-25T02:36:56.236Z,-0.50
2023-02-25T02:39:27.389Z,-0.60
2023-02-25T02:42:00.659Z,-0.60
2023-02-25T02:44:31.455Z,-0.70
2023-02-25T02:47:04.139Z,-0.70
2023-02-25T02:49:34.005Z,-0.70
2023-02-25T02:52:05.008Z,-0.70
2023-02-25T02:54:33.859Z,-0.60
2023-02-25T02:57:04.219Z,-0.60
2023-02-25T02:59:34.309Z,-0.60
2023-02-25T03:02:08.954Z,-0.60
2023-02-25T03:04:39.020Z,-0.50
2023-02-25T03:07:09.741Z,-0.50
2023-02-25T03:09:53.102Z,-0.50
2023-02-25T03:12:21.243Z,-0.50
2023-02-25T03:14:49.394Z,-0.50
2023-02-25T03:17:21.607Z,-0.40
2023-02-25T03:19:52.320Z,-0.50
2023-02-25T03:22:23.472Z,-0.50
2023-02-25T03:24:54.555Z,-0.50
2023-02-25T03:27:25.575Z,-0.40
2023-02-25T03:29:54.407Z,-0.40
2023-02-25T03:32:26.013Z,-0.40
2023-02-25T03:34:57.622Z,-0.40
2023-02-25T03:37:30.539Z,-0.50
2023-02-25T03:40:00.503Z,-0.50
2023-02-25T03:42:31.531Z,-0.50
2023-02-25T03:45:00.908Z,-0.60
2023-02-25T03:47:31.475Z,-0.70
2023-02-25T03:50:02.238Z,-0.70
2023-02-25T03:52:30.883Z,-0.70
2023-02-25T03:54:59.601Z,-0.60
2023-02-25T03:57:29.573Z,-0.50
2023-02-25T03:59:57.889Z,-0.50
2023-02-25T04:02:28.530Z,-0.40
2023-02-25T04:04:58.390Z,-0.30
2023-02-25T04:07:26.713Z,-0.30
2023-02-25T04:09:54.830Z,-0.30
2023-02-25T04:12:23.186Z,-0.30
2023-02-25T04:14:51.418Z,-0.30
2023-02-25T04:17:19.739Z,-0.40
2023-02-25T04:19:47.976Z,-0.30
2023-02-25T04:22:17.704Z,-0.30
2023-02-25T04:24:46.085Z,-0.30
2023-02-25T04:27:15.844Z,-0.30
2023-02-25T04:29:44.005Z,-0.40
2023-02-25T04:32:13.298Z,-0.40
2023-02-25T04:34:41.463Z,-0.50
2023-02-25T04:37:10.191Z,-0.50
2023-02-25T04:39:39.891Z,-0.50
2023-02-25T04:42:08.348Z,-0.50
2023-02-25T04:44:36.522Z,-0.50
2023-02-25T04:47:04.711Z,-0.40
2023-02-25T04:49:33.082Z,-0.40
2023-02-25T04:52:01.261Z,-0.30
2023-02-25T04:54:34.773Z,-0.40
2023-02-25T04:57:04.360Z,-0.40
2023-02-25T04:59:32.661Z,-0.40
2023-02-25T05:02:00.826Z,-0.40
2023-02-25T05:04:29.120Z,-0.40
2023-02-25T05:07:00.241Z,-0.30
2023-02-25T05:09:28.564Z,-0.30
2023-02-25T05:11:56.818Z,-0.30
2023-02-25T05:14:26.498Z,-0.30
2023-02-25T05:16:56.955Z,-0.30
2023-02-25T05:19:26.315Z,-0.30
2023-02-25T05:21:54.747Z,-0.40
2023-02-25T05:24:23.910Z,-0.30
2023-02-25T05:26:52.713Z,-0.20
2023-02-25T05:29:20.940Z,-0.30
2023-02-25T05:31:51.969Z,-0.30
2023-02-25T05:34:20.339Z,-0.30
2023-02-25T05:36:48.666Z,-0.30
2023-02-25T05:39:16.917Z,-0.30
2023-02-25T05:41:45.138Z,-0.30
2023-02-25T05:44:13.533Z,-0.30
2023-02-25T05:46:41.756Z,-0.30
2023-02-25T05:49:11.798Z,-0.40
2023-02-25T05:51:39.983Z,-0.40
2023-02-25T05:54:08.323Z,-0.40
2023-02-25T05:56:36.460Z,-0.30
2023-02-25T05:59:07.428Z,-0.40
2023-02-25T06:01:35.734Z,-0.40
2023-02-25T06:04:04.140Z,-0.40
2023-02-25T06:06:33.677Z,-0.40
2023-02-25T06:09:01.835Z,-0.30
2023-02-25T06:11:32.409Z,-0.30
2023-02-25T06:14:01.830Z,-0.30
2023-02-25T06:16:32.371Z,-0.30
2023-02-25T06:19:01.393Z,-0.40
2023-02-25T06:21:29.891Z,-0.40
2023-02-25T06:23:59.688Z,-0.40
2023-02-25T06:26:28.393Z,-0.40
2023-02-25T06:28:58.975Z,-0.30
2023-02-25T06:31:27.734Z,-0.30
2023-02-25T06:33:56.367Z,-0.30
2023-02-25T06:36:24.922Z,-0.30
2023-02-25T06:38:53.323Z,-0.30
2023-02-25T06:41:23.698Z,-0.30
2023-02-25T06:43:52.426Z,-0.20
2023-02-25T06:46:22.302Z,-0.20
2023-02-25T06:48:50.722Z,-0.20
2023-02-25T06:51:18.997Z,-0.20
2023-02-25T06:53:47.828Z,-0.20
2023-02-25T06:56:16.588Z,-0.20
2023-02-25T06:58:46.174Z,-0.20
2023-02-25T07:01:15.822Z,-0.10
2023-02-25T07:03:44.275Z,-0.20
2023-02-25T07:06:14.126Z,-0.10
2023-02-25T07:08:42.202Z,-0.20
2023-02-25T07:11:15.492Z,-0.40
2023-02-25T07:13:44.716Z,-0.40
2023-02-25T07:16:15.153Z,-0.30
2023-02-25T07:18:43.722Z,-0.20
2023-02-25T07:21:13.851Z,-0.20
2023-02-25T07:23:42.398Z,-0.10
2023-02-25T07:26:11.372Z,-0.10
2023-02-25T07:28:40.382Z,-0.10
2023-02-25T07:31:11.535Z,-0.20
2023-02-25T07:33:41.601Z,-0.30
2023-02-25T07:36:09.953Z,-0.40
2023-02-25T07:38:38.959Z,-0.40
2023-02-25T07:41:07.932Z,-0.40
2023-02-25T07:43:36.479Z,-0.40
2023-02-25T07:46:05.306Z,-0.40
2023-02-25T07:48:33.887Z,-0.40
2023-02-25T07:51:07.367Z,-0.40
2023-02-25T07:53:35.550Z,-0.30
2023-02-25T07:56:03.896Z,-0.20
2023-02-25T07:58:32.020Z,-0.20
2023-02-25T08:01:00.695Z,-0.20
2023-02-25T08:03:28.990Z,-0.20
2023-02-25T08:05:57.656Z,-0.20
2023-02-25T08:08:27.178Z,-0.20
2023-02-25T08:10:55.634Z,-0.20
2023-02-25T08:13:23.723Z,-0.20
2023-02-25T08:15:53.484Z,-0.20
2023-02-25T08:18:21.713Z,-0.20
2023-02-25T08:20:49.873Z,-0.20
2023-02-25T08:23:19.903Z,-0.20
2023-02-25T08:25:55.167Z,-0.30
2023-02-25T08:28:24.232Z,-0.30
2023-02-25T08:30:52.470Z,-0.30
2023-02-25T08:33:20.922Z,-0.30
2023-02-25T08:35:49.083Z,-0.30
2023-02-25T08:38:17.389Z,-0.20
2023-02-25T08:40:45.918Z,-0.20
2023-02-25T08:43:15.484Z,-0.20
2023-02-25T08:45:43.766Z,-0.20
2023-02-25T08:48:11.981Z,-0.20
2023-02-25T08:50:40.253Z,-0.20
2023-02-25T08:53:08.862Z,-0.10
2023-02-25T08:55:37.171Z,-0.10
2023-02-25T08:58:06.304Z,-0.10
2023-02-25T09:00:36.426Z,0.00
2023-02-25T09:03:04.625Z,0.00
2023-02-25T09:05:32.723Z,0.10
2023-02-25T09:08:01.080Z,0.10
2023-02-25T09:10:34.109Z,0.10
2023-02-25T09:13:09.600Z,0.10
2023-02-25T09:15:39.348Z,0.00
2023-02-25T09:18:07.652Z,0.00
2023-02-25T09:20:35.863Z,0.00
2023-02-25T09:23:04.177Z,0.10
2023-02-25T09:25:32.400Z,0.20
2023-02-25T09:28:00.529Z,0.10
2023-02-25T09:30:28.889Z,0.10
2023-02-25T09:32:58.676Z,0.10
2023-02-25T09:35:26.923Z,0.10
2023-02-25T09:37:55.072Z,0.10
2023-02-25T09:40:23.884Z,0.10
2023-02-25T09:42:57.111Z,0.10
2023-02-25T09:45:26.316Z,0.10
2023-02-25T09:47:58.228Z,0.10
2023-02-25T09:50:29.855Z,0.10
2023-02-25T09:53:03.001Z,0.10
2023-02-25T09:55:33.881Z,0.10
2023-02-25T09:58:04.645Z,0.10
2023-02-25T10:00:33.589Z,0.10
2023-02-25T10:03:05.828Z,0.10
2023-02-25T10:05:41.010Z,0.10
2023-02-25T10:08:14.078Z,0.10
2023-02-25T10:10:47.906Z,0.10
2023-02-25T10:13:22.267Z,0.00
2023-02-25T10:15:54.551Z,0.00
2023-02-25T10:18:30.466Z,0.00
2023-02-25T10:21:07.774Z,0.00
2023-02-25T10:23:42.320Z,0.00
2023-02-25T10:26:15.733Z,0.00
2023-02-25T10:28:45.054Z,0.10
2023-02-25T10:31:15.676Z,0.10
2023-02-25T10:33:45.891Z,0.10
2023-02-25T10:36:16.551Z,0.10
2023-02-25T10:38:45.371Z,0.10
2023-02-25T10:41:14.279Z,0.10
2023-02-25T10:43:44.240Z,0.10
2023-02-25T10:46:16.854Z,0.20
2023-02-25T10:48:48.767Z,0.30
2023-02-25T10:51:18.376Z,0.30
2023-02-25T10:54:02.828Z,0.40
2023-02-25T10:56:32.727Z,0.30
2023-02-25T10:59:04.805Z,0.20
2023-02-25T11:01:36.840Z,0.30
2023-02-25T11:04:06.819Z,0.30
2023-02-25T11:06:39.844Z,0.30
2023-02-25T11:09:28.178Z,0.30
2023-02-25T11:11:57.360Z,0.30
2023-02-25T11:14:29.011Z,0.30
2023-02-25T11:17:04.319Z,0.30
2023-02-25T11:19:36.788Z,0.30
2023-02-25T11:22:10.665Z,0.30
2023-02-25T11:24:39.515Z,0.30
2023-02-25T11:27:09.187Z,0.40
2023-02-25T11:29:39.394Z,0.40
2023-02-25T11:32:12.616Z,0.30
2023-02-25T11:34:48.229Z,0.30
2023-02-25T11:37:28.046Z,0.30
2023-02-25T11:39:56.801Z,0.30
2023-02-25T11:42:27.272Z,0.30
2023-02-25T11:45:00.608Z,0.30
2023-02-25T11:47:30.724Z,0.30
2023-02-25T11:50:10.848Z,0.30
2023-02-25T11:52:43.642Z,0.30
2023-02-25T11:55:19.000Z,0.30
2023-02-25T11:57:51.667Z,0.40
2023-02-25T12:00:25.781Z,0.30
2023-02-25T12:03:17.748Z,0.30
2023-02-25T12:06:00.766Z,0.20
2023-02-25T12:08:50.227Z,0.20
2023-02-25T12:11:40.458Z,0.20
2023-02-25T12:14:29.572Z,0.20
2023-02-25T12:17:18.774Z,0.10
2023-02-25T12:19:59.514Z,0.10
2023-02-25T12:22:40.401Z,0.10
2023-02-25T12:25:16.386Z,0.10
2023-02-25T12:27:57.187Z,0.10
2023-02-25T12:30:43.482Z,0.10
2023-02-25T12:33:18.658Z,0.10
2023-02-25T12:36:13.765Z,0.00
2023-02-25T12:38:59.480Z,0.00
2023-02-25T12:41:38.781Z,0.00
2023-02-25T12:44:15.249Z,-0.10
2023-02-25T12:46:53.143Z,0.00
2023-02-25T12:49:39.135Z,-0.10
2023-02-25T12:52:17.354Z,0.00
2023-02-25T12:55:06.415Z,-0.10
2023-02-25T12:57:42.380Z,0.00
2023-02-25T13:00:40.095Z,0.00
2023-02-25T13:03:21.324Z,0.00
2023-02-25T13:05:57.176Z,0.00
2023-02-25T13:08:40.108Z,0.00
2023-02-25T13:11:13.487Z,0.00
2023-02-25T13:14:02.168Z,-0.10
2023-02-25T13:16:40.958Z,0.00
2023-02-25T13:19:20.341Z,-0.10
2023-02-25T13:21:53.989Z,-0.20
2023-02-25T13:24:31.939Z,-0.20
2023-02-25T13:27:26.854Z,-0.30
2023-02-25T13:30:07.996Z,-0.20
2023-02-25T13:32:39.142Z,-0.20
2023-02-25T13:35:17.249Z,-0.10
2023-02-25T13:37:52.551Z,-0.20
2023-02-25T13:40:33.361Z,-0.20
2023-02-25T13:43:19.744Z,-0.20
2023-02-25T13:46:03.689Z,-0.30
2023-02-25T13:48:39.134Z,-0.40
2023-02-25T13:51:17.576Z,-0.40
2023-02-25T13:53:53.116Z,-0.40
2023-02-25T13:56:45.043Z,-0.30
2023-02-25T13:59:18.289Z,-0.30
2023-02-25T14:01:54.137Z,-0.10
2023-02-25T14:04:42.991Z,-0.10
2023-02-25T14:07:29.703Z,-0.10
2023-02-25T14:10:02.861Z,-0.10
2023-02-25T14:12:43.984Z,-0.20
2023-02-25T14:15:25.864Z,0.00
2023-02-25T14:17:59.997Z,-0.10
2023-02-25T14:20:35.371Z,0.00
2023-02-25T14:23:07.883Z,-0.20
2023-02-25T14:25:40.206Z,-0.30
2023-02-25T14:28:13.666Z,-0.20
2023-02-25T14:30:50.441Z,-0.30
2023-02-25T14:33:33.697Z,-0.30
2023-02-25T14:36:13.693Z,-0.50
2023-02-25T14:39:02.143Z,-0.40
2023-02-25T14:41:36.862Z,-0.30
2023-02-25T14:44:07.894Z,-0.30
2023-02-25T14:46:40.481Z,-0.30
2023-02-25T14:49:12.757Z,-0.40
2023-02-25T14:52:02.510Z,-0.30
2023-02-25T14:54:38.644Z,-0.40
2023-02-25T14:57:17.551Z,-0.40
2023-02-25T14:59:57.732Z,-0.40
2023-02-25T15:02:45.295Z,-0.50
2023-02-25T15:05:31.998Z,-0.50
2023-02-25T15:08:15.428Z,-0.50
2023-02-25T15:11:01.939Z,-0.50
2023-02-25T15:13:54.597Z,-0.60
2023-02-25T15:16:37.714Z,-0.60
2023-02-25T15:19:26.333Z,-0.60
2023-02-25T15:22:13.006Z,-0.70
2023-02-25T15:24:41.725Z,-0.70
2023-02-25T15:27:28.431Z,-0.70
2023-02-25T15:30:02.262Z,-0.70
2023-02-25T15:32:31.270Z,-0.70
2023-02-25T15:35:00.331Z,-0.70
2023-02-25T15:37:35.877Z,-0.80
2023-02-25T15:40:30.865Z,-0.80
2023-02-25T15:43:01.467Z,-0.80
2023-02-25T15:45:37.756Z,-0.90
2023-02-25T15:48:29.527Z,-0.80
2023-02-25T15:50:58.206Z,-0.80
2023-02-25T15:53:39.945Z,-0.90
2023-02-25T15:56:31.310Z,-0.90
2023-02-25T15:59:00.489Z,-0.90
2023-02-25T16:01:42.711Z,-0.90
2023-02-25T16:04:29.398Z,-0.90
2023-02-25T16:07:00.740Z,-1.00
2023-02-25T16:09:29.079Z,-0.90
2023-02-25T16:12:06.834Z,-0.90
2023-02-25T16:14:36.104Z,-0.90
2023-02-25T16:17:08.380Z,-0.90
2023-02-25T16:19:40.169Z,-1.00
2023-02-25T16:22:10.480Z,-0.90
2023-02-25T16:24:38.718Z,-0.90
2023-02-25T16:27:07.995Z,-0.90
2023-02-25T16:29:41.335Z,-0.90
2023-02-25T16:32:18.168Z,-0.90
2023-02-25T16:34:48.787Z,-0.90
2023-02-25T16:37:20.577Z,-0.90
2023-02-25T16:39:48.974Z,-0.90
2023-02-25T16:42:18.246Z,-1.00
2023-02-25T16:44:48.021Z,-1.00
2023-02-25T16:47:23.953Z,-1.00
2023-02-25T16:49:53.336Z,-1.00
2023-02-25T16:52:24.987Z,-1.00
2023-02-25T16:54:55.834Z,-1.10
2023-02-25T16:57:25.885Z,-1.00
2023-02-25T17:00:07.051Z,-1.00
2023-02-25T17:02:43.827Z,-1.00
2023-02-25T17:05:24.145Z,-1.00
2023-02-25T17:07:55.140Z,-0.90
2023-02-25T17:10:26.388Z,-0.90
2023-02-25T17:12:54.911Z,-0.90
2023-02-25T17:15:24.523Z,-0.90
2023-02-25T17:17:56.731Z,-0.90
2023-02-25T17:20:27.851Z,-0.90
2023-02-25T17:22:56.903Z,-0.90
2023-02-25T17:25:27.575Z,-0.90
2023-02-25T17:27:57.828Z,-1.00
2023-02-25T17:30:36.490Z,-1.00
2023-02-25T17:33:06.574Z,-0.90
2023-02-25T17:35:35.912Z,-1.00
2023-02-25T17:38:04.312Z,-1.00
2023-02-25T17:40:33.334Z,-1.00
2023-02-25T17:43:17.310Z,-1.00
2023-02-25T17:45:50.216Z,-1.00
2023-02-25T17:48:21.050Z,-1.00
2023-02-25T17:50:53.447Z,-0.90
2023-02-25T17:53:39.659Z,-1.00
2023-02-25T17:56:12.299Z,-1.00
2023-02-25T17:58:40.611Z,-1.00
2023-02-25T18:01:10.455Z,-0.90
2023-02-25T18:03:47.000Z,-1.00
2023-02-25T18:06:32.790Z,-1.00
2023-02-25T18:09:02.889Z,-1.00
2023-02-25T18:11:32.604Z,-1.00
2023-02-25T18:14:02.210Z,-1.00
2023-02-25T18:16:33.517Z,-1.00
2023-02-25T18:19:03.410Z,-1.00
2023-02-25T18:21:31.703Z,-1.00
2023-02-25T18:24:00.543Z,-1.00
2023-02-25T18:26:28.851Z,-1.00
2023-02-25T18:28:58.799Z,-1.00
2023-02-25T18:31:27.067Z,-0.90
2023-02-25T18:33:55.214Z,-1.00
2023-02-25T18:36:25.805Z,-0.90
2023-02-25T18:38:54.859Z,-1.00
2023-02-25T18:41:23.085Z,-0.90
2023-02-25T18:43:54.824Z,-0.90
2023-02-25T18:46:23.481Z,-0.90
2023-02-25T18:48:59.552Z,-1.00
2023-02-25T18:51:29.304Z,-0.90
2023-02-25T18:53:57.397Z,-1.00
2023-02-25T18:56:25.948Z,-1.00
2023-02-25T18:58:55.180Z,-1.00
2023-02-25T19:01:24.720Z,-0.90
2023-02-25T19:03:54.200Z,-0.90
2023-02-25T19:06:22.492Z,-1.00
2023-02-25T19:08:52.243Z,-0.90
2023-02-25T19:11:25.720Z,-0.80
2023-02-25T19:13:54.636Z,-0.90
2023-02-25T19:16:23.654Z,-0.90
2023-02-25T19:18:52.777Z,-0.90
2023-02-25T19:21:22.027Z,-0.90
2023-02-25T19:23:51.731Z,-1.00
2023-02-25T19:26:21.844Z,-1.10
2023-02-25T19:28:50.485Z,-0.90
2023-02-25T19:31:19.185Z,-1.00
2023-02-25T19:33:47.449Z,-1.00
2023-02-25T19:36:15.765Z,-1.00
2023-02-25T19:38:43.944Z,-1.00
2023-02-25T19:41:13.861Z,-1.00
2023-02-25T19:43:43.471Z,-1.10
2023-02-25T19:46:17.464Z,-1.00
2023-02-25T19:48:45.779Z,-0.90
2023-02-25T19:51:14.000Z,-0.80
2023-02-25T19:53:42.184Z,-0.80
2023-02-25T19:56:10.531Z,-0.80
2023-02-25T19:58:39.811Z,-0.70
2023-02-25T20:01:10.214Z,-0.70
2023-02-25T20:03:38.510Z,-0.70
2023-02-25T20:06:08.006Z,-0.70
2023-02-25T20:08:38.658Z,-0.70
2023-02-25T20:11:08.900Z,-0.70
2023-02-25T20:13:38.479Z,-0.70
2023-02-25T20:16:07.511Z,-0.70
2023-02-25T20:18:37.149Z,-0.80
2023-02-25T20:21:05.627Z,-0.60
2023-02-25T20:23:33.765Z,-0.60
2023-02-25T20:26:08.399Z,-0.60
2023-02-25T20:28:36.951Z,-0.70
2023-02-25T20:31:07.176Z,-0.70
2023-02-25T20:33:36.054Z,-0.70
2023-02-25T20:36:16.361Z,-0.70
2023-02-25T20:38:51.614Z,-0.70
2023-02-25T20:41:20.573Z,-0.80
2023-02-25T20:43:50.959Z,-0.80
2023-02-25T20:46:22.472Z,-0.80
2023-02-25T20:48:51.061Z,-0.80
2023-02-25T20:51:20.987Z,-0.70
2023-02-25T20:53:49.770Z,-0.70
2023-02-25T20:56:21.020Z,-0.70
2023-02-25T20:58:49.177Z,-0.70
2023-02-25T21:01:17.531Z,-0.70
2023-02-25T21:03:45.660Z,-0.80
2023-02-25T21:06:14.156Z,-0.70
2023-02-25T21:08:43.743Z,-0.60
2023-02-25T21:11:11.988Z,-0.70
2023-02-25T21:13:40.095Z,-0.70
2023-02-25T21:16:08.839Z,-0.70
2023-02-25T21:18:37.125Z,-0.60
2023-02-25T21:21:07.799Z,-0.60
2023-02-25T21:23:36.548Z,-0.60
2023-02-25T21:26:10.458Z,-0.60
2023-02-25T21:28:39.056Z,-0.60
2023-02-25T21:31:08.938Z,-0.70
2023-02-25T21:33:37.750Z,-0.60
2023-02-25T21:36:06.663Z,-0.60
2023-02-25T21:38:35.184Z,-0.70
2023-02-25T21:41:08.426Z,-0.60
2023-02-25T21:43:36.972Z,-0.70
2023-02-25T21:46:05.852Z,-0.80
2023-02-25T21:48:34.395Z,-0.60
2023-02-25T21:51:02.509Z,-0.50
2023-02-25T21:53:30.896Z,-0.60
2023-02-25T21:56:07.992Z,-0.50
2023-02-25T21:58:40.096Z,-0.40
2023-02-25T22:01:12.619Z,-0.30
2023-02-25T22:03:40.987Z,-0.30
2023-02-25T22:06:12.037Z,-0.30
2023-02-25T22:08:44.382Z,-0.30
2023-02-25T22:11:13.226Z,-0.30
2023-02-25T22:13:43.212Z,-0.40
2023-02-25T22:16:11.914Z,-0.40
2023-02-25T22:18:40.318Z,-0.30
2023-02-25T22:21:10.118Z,-0.30
2023-02-25T22:23:41.538Z,-0.30
2023-02-25T22:26:11.027Z,-0.30
2023-02-25T22:28:39.218Z,-0.40
2023-02-25T22:31:10.270Z,-0.30
2023-02-25T22:33:38.600Z,-0.20
2023-02-25T22:36:08.028Z,-0.20
2023-02-25T22:38:37.375Z,-0.20
2023-02-25T22:41:12.954Z,-0.10
2023-02-25T22:43:41.243Z,-0.10
2023-02-25T22:46:11.660Z,-0.10
2023-02-25T22:48:41.159Z,-0.10
2023-02-25T22:51:09.560Z,0.00
2023-02-25T22:53:38.148Z,-0.10
2023-02-25T22:56:07.432Z,0.00
2023-02-25T22:58:37.175Z,0.00
2023-02-25T23:01:08.387Z,-0.10
2023-02-25T23:03:38.583Z,-0.20
2023-02-25T23:06:07.246Z,-0.20
2023-02-25T23:08:36.194Z,-0.20
2023-02-25T23:11:14.488Z,-0.40
2023-02-25T23:13:46.258Z,-0.30
2023-02-25T23:16:15.075Z,-0.30
2023-02-25T23:18:44.806Z,-0.30
2023-02-25T23:21:16.699Z,-0.40
2023-02-25T23:23:45.359Z,-0.40
2023-02-25T23:26:14.410Z,-0.40
2023-02-25T23:28:42.944Z,-0.40
2023-02-25T23:31:19.150Z,-0.40
2023-02-25T23:33:48.997Z,-0.50
2023-02-25T23:36:17.316Z,-0.50
2023-02-25T23:38:53.010Z,-0.30
2023-02-25T23:41:21.182Z,-0.20
2023-02-25T23:43:52.787Z,-0.20
2023-02-25T23:46:21.122Z,-0.20
2023-02-25T23:48:50.920Z,-0.10
2023-02-25T23:51:19.107Z,-0.10
2023-02-25T23:53:47.319Z,0.00
2023-02-25T23:56:17.595Z,0.00
2023-02-25T23:58:49.674Z,0.00
